createdAt,value
2022-09-20T00:00:33.396Z,27934.50
2022-09-20T00:01:35.869Z,31874.91
2022-09-20T00:02:38.166Z,35160.50
2022-09-20T00:03:46.483Z,34850.47
2022-09-20T00:04:49.539Z,39761.00
2022-09-20T00:05:51.739Z,39100.91
2022-09-20T00:06:53.859Z,39422.41
2022-09-20T00:07:55.968Z,37114.44
2022-09-20T00:08:59.627Z,31534.25
2022-09-20T00:10:01.819Z,28904.50
2022-09-20T00:11:06.669Z,25959.69
2022-09-20T00:12:09.194Z,26278.53
2022-09-20T00:13:13.627Z,25959.69
2022-09-20T00:14:15.803Z,27258.06
2022-09-20T00:15:18.116Z,24636.63
2022-09-20T00:16:23.952Z,22026.97
2022-09-20T00:17:26.130Z,24637.56
2022-09-20T00:18:28.285Z,22668.84
2022-09-20T00:19:30.671Z,20381.06
2022-09-20T00:20:32.764Z,19074.00
2022-09-20T00:21:36.441Z,16786.22
2022-09-20T00:22:38.618Z,15480.91
2022-09-20T00:23:40.710Z,14501.75
2022-09-20T00:24:45.641Z,15478.97
2022-09-20T00:26:11.563Z,10265.59
2022-09-20T00:27:14.020Z,11561.56
2022-09-20T00:28:16.118Z,9609.59
2022-09-20T00:29:18.260Z,12867.47
2022-09-20T00:30:21.045Z,12541.66
2022-09-20T00:31:23.328Z,11561.78
2022-09-20T00:32:25.498Z,9930.53
2022-09-20T00:33:46.233Z,7653.03
2022-09-20T00:35:06.683Z,8304.38
2022-09-20T00:36:08.797Z,9279.44
2022-09-20T00:37:10.952Z,9282.63
2022-09-20T00:38:14.478Z,8955.97
2022-09-20T00:39:17.347Z,7653.22
2022-09-20T00:40:21.163Z,7002.34
2022-09-20T00:41:23.427Z,5375.03
2022-09-20T00:42:30.209Z,6680.66
2022-09-20T00:43:41.007Z,10591.44
2022-09-20T00:44:43.170Z,13844.09
2022-09-20T00:45:49.112Z,11565.47
2022-09-20T00:46:51.549Z,13845.78
2022-09-20T00:48:07.878Z,9938.16
2022-09-20T00:49:23.387Z,13199.97
2022-09-20T00:50:34.827Z,13526.59
2022-09-20T00:51:40.090Z,14172.97
2022-09-20T00:52:46.288Z,10258.25
2022-09-20T00:53:50.744Z,7328.59
2022-09-20T00:54:53.705Z,8630.66
2022-09-20T00:56:00.885Z,8958.78
2022-09-20T00:57:03.181Z,10909.56
2022-09-20T00:58:06.433Z,11236.50
2022-09-20T00:59:16.557Z,9286.09
2022-09-20T01:00:18.756Z,12540.41
2022-09-20T01:01:21.031Z,15475.72
2022-09-20T01:02:27.753Z,13848.84
2022-09-20T01:03:33.012Z,15154.06
2022-09-20T01:04:38.946Z,15805.25
2022-09-20T01:05:44.527Z,15475.50
2022-09-20T01:06:47.246Z,15471.47
2022-09-20T01:07:51.651Z,12867.13
2022-09-20T01:08:58.860Z,12868.00
2022-09-20T01:10:01.542Z,14170.81
2022-09-20T01:11:03.745Z,16125.53
2022-09-20T01:12:12.281Z,12868.28
2022-09-20T01:13:14.765Z,15470.72
2022-09-20T01:14:22.184Z,13188.66
2022-09-20T01:15:28.029Z,10910.34
2022-09-20T01:16:32.477Z,11887.06
2022-09-20T01:17:39.125Z,11561.09
2022-09-20T01:18:42.435Z,12863.13
2022-09-20T01:20:03.138Z,12217.25
2022-09-20T01:21:07.321Z,13843.50
2022-09-20T01:22:32.404Z,14171.69
2022-09-20T01:23:49.828Z,12865.66
2022-09-20T01:25:27.192Z,10910.84
2022-09-20T01:26:47.901Z,12856.59
2022-09-20T01:27:54.050Z,9928.72
2022-09-20T01:29:25.856Z,9280.94
2022-09-20T01:30:40.293Z,10581.09
2022-09-20T01:31:53.312Z,10252.19
2022-09-20T01:33:15.736Z,9922.06
2022-09-20T01:34:40.631Z,8626.75
2022-09-20T01:35:45.634Z,9277.13
2022-09-20T01:36:56.242Z,11879.94
2022-09-20T01:38:11.886Z,8951.81
2022-09-20T01:39:36.730Z,10907.41
2022-09-20T01:40:59.644Z,12860.69
2022-09-20T01:42:09.065Z,15797.38
2022-09-20T01:43:40.562Z,18080.63
2022-09-20T01:44:53.033Z,19715.78
2022-09-20T01:45:56.241Z,22966.91
2022-09-20T01:47:10.911Z,19387.47
2022-09-20T01:48:33.742Z,20370.03
2022-09-20T01:49:50.929Z,22662.47
2022-09-20T01:51:29.861Z,24949.72
2022-09-20T01:52:37.813Z,23961.78
2022-09-20T01:53:46.017Z,23621.47
2022-09-20T01:55:25.711Z,23641.63
2022-09-20T01:56:30.849Z,24294.25
2022-09-20T01:58:07.058Z,22994.13
2022-09-20T01:59:24.861Z,28226.97
2022-09-20T02:00:31.851Z,30843.59
2022-09-20T02:02:06.110Z,31181.59
2022-09-20T02:03:42.196Z,32815.69
2022-09-20T02:04:59.856Z,32152.09
2022-09-20T02:06:13.791Z,29858.75
2022-09-20T02:07:47.269Z,27892.44
2022-09-20T02:09:10.912Z,27895.19
2022-09-20T02:10:40.748Z,25597.72
2022-09-20T02:12:22.986Z,17425.31
2022-09-20T02:13:30.153Z,15786.34
2022-09-20T02:14:43.099Z,14494.41
2022-09-20T02:16:10.100Z,19066.69
2022-09-20T02:17:32.061Z,21017.09
2022-09-20T02:18:34.140Z,19706.06
2022-09-20T02:20:07.505Z,20702.09
2022-09-20T02:21:33.012Z,25915.41
2022-09-20T02:23:22.386Z,23318.84
2022-09-20T02:24:38.790Z,26592.41
2022-09-20T02:25:53.005Z,29221.16
2022-09-20T02:27:23.035Z,32170.72
2022-09-20T02:28:46.174Z,34143.56
2022-09-20T02:29:52.850Z,40358.41
2022-09-20T02:31:31.238Z,39725.34
2022-09-20T02:32:51.874Z,40376.25
2022-09-20T02:34:26.354Z,36094.97
2022-09-20T02:35:45.022Z,30191.25
2022-09-20T02:36:54.210Z,24941.91
2022-09-20T02:38:18.152Z,20040.84
2022-09-20T02:39:34.925Z,16446.97
2022-09-20T02:40:55.875Z,14493.59
2022-09-20T02:42:25.025Z,10905.34
2022-09-20T02:43:56.126Z,11234.12
2022-09-20T02:45:23.589Z,17755.72
2022-09-20T02:46:28.682Z,20353.56
2022-09-20T02:47:38.275Z,17429.19
2022-09-20T02:49:12.935Z,18079.72
2022-09-20T02:50:21.690Z,19046.00
2022-09-20T02:52:00.132Z,14166.03
2022-09-20T02:53:14.499Z,19701.19
2022-09-20T02:54:31.803Z,18392.75
2022-09-20T02:55:54.169Z,14162.50
2022-09-20T02:57:05.737Z,11556.72
2022-09-20T02:58:42.550Z,12535.25
2022-09-20T03:00:02.139Z,13515.66
2022-09-20T03:01:13.692Z,16780.25
2022-09-20T03:02:32.775Z,18736.25
2022-09-20T03:03:52.886Z,22646.59
2022-09-20T03:05:30.758Z,22659.13
2022-09-20T03:06:50.931Z,22332.34
2022-09-20T03:08:03.154Z,20044.94
2022-09-20T03:09:30.495Z,17431.41
2022-09-20T03:10:47.492Z,14816.34
2022-09-20T03:12:14.553Z,12213.00
2022-09-20T03:13:38.376Z,10581.91
2022-09-20T03:14:49.584Z,11235.63
2022-09-20T03:16:10.445Z,8631.59
2022-09-20T03:17:31.154Z,12219.56
2022-09-20T03:18:42.459Z,14830.59
2022-09-20T03:19:56.859Z,17116.56
2022-09-20T03:21:22.613Z,17118.41
2022-09-20T03:22:46.495Z,18100.75
2022-09-20T03:24:10.028Z,20060.56
2022-09-20T03:25:27.302Z,19730.69
2022-09-20T03:26:41.033Z,19396.63
2022-09-20T03:27:47.532Z,21040.06
2022-09-20T03:29:16.508Z,21041.44
2022-09-20T03:30:54.292Z,20385.50
2022-09-20T03:31:56.480Z,19063.66
2022-09-20T03:33:11.069Z,13199.88
2022-09-20T03:34:39.234Z,13198.91
2022-09-20T03:36:00.127Z,12869.06
2022-09-20T03:37:27.199Z,10590.97
2022-09-20T03:39:11.411Z,13529.53
2022-09-20T03:40:45.702Z,15486.34
2022-09-20T03:42:00.681Z,14505.06
2022-09-20T03:43:44.743Z,11240.72
2022-09-20T03:45:02.216Z,11236.19
2022-09-20T03:46:21.238Z,8309.28
2022-09-20T03:47:26.305Z,9932.00
2022-09-20T03:48:53.536Z,5377.59
2022-09-20T03:50:34.606Z,7658.50
2022-09-20T03:52:01.919Z,10920.41
2022-09-20T03:53:22.285Z,13846.66
2022-09-20T03:54:58.938Z,12549.19
2022-09-20T03:56:36.824Z,12872.81
2022-09-20T03:57:57.471Z,10588.50
2022-09-20T03:59:11.788Z,10267.22
2022-09-20T04:00:50.473Z,12221.13
2022-09-20T04:02:21.183Z,11241.97
2022-09-20T04:04:00.758Z,11569.06
2022-09-20T04:05:12.367Z,13523.44
2022-09-20T04:06:42.162Z,13200.53
2022-09-20T04:08:07.585Z,16465.88
2022-09-20T04:09:24.682Z,20377.91
2022-09-20T04:10:59.289Z,19404.78
2022-09-20T04:12:05.436Z,17769.97
2022-09-20T04:13:25.663Z,17772.28
2022-09-20T04:14:57.533Z,19407.31
2022-09-20T04:16:06.591Z,20373.63
2022-09-20T04:17:21.069Z,16791.00
2022-09-20T04:18:47.786Z,15157.16
2022-09-20T04:19:58.601Z,16464.94
2022-09-20T04:21:15.644Z,19079.94
2022-09-20T04:22:58.469Z,17769.47
2022-09-20T04:24:41.937Z,16140.47
2022-09-20T04:25:48.260Z,17766.94
2022-09-20T04:26:55.573Z,17111.56
2022-09-20T04:28:03.005Z,13193.50
2022-09-20T04:29:26.708Z,13851.72
2022-09-20T04:30:31.951Z,16786.56
2022-09-20T04:31:54.119Z,18096.88
2022-09-20T04:33:00.238Z,21363.38
2022-09-20T04:34:07.029Z,23649.50
2022-09-20T04:35:47.884Z,20707.22
2022-09-20T04:36:49.946Z,24623.78
2022-09-20T04:37:53.588Z,22663.81
2022-09-20T04:39:02.063Z,21358.38
2022-09-20T04:40:22.711Z,21034.66
2022-09-20T04:41:51.169Z,24617.19
2022-09-20T04:43:15.153Z,24959.22
2022-09-20T04:45:03.593Z,26922.13
2022-09-20T04:46:42.363Z,23975.84
2022-09-20T04:48:22.613Z,27905.28
2022-09-20T04:49:49.407Z,26593.22
2022-09-20T04:51:21.934Z,23320.91
2022-09-20T04:52:58.058Z,19726.69
2022-09-20T04:54:15.284Z,21686.47
2022-09-20T04:55:23.432Z,17763.34
2022-09-20T04:56:31.350Z,17435.41
2022-09-20T04:57:36.754Z,18731.00
2022-09-20T04:58:47.568Z,17106.56
2022-09-20T04:59:53.587Z,17760.69
2022-09-20T05:01:04.725Z,16453.28
2022-09-20T05:02:54.576Z,15801.25
2022-09-20T05:04:11.673Z,19720.38
2022-09-20T05:05:49.242Z,19068.50
2022-09-20T05:07:15.189Z,18085.28
2022-09-20T05:09:01.923Z,17758.78
2022-09-20T05:10:28.806Z,18083.88
2022-09-20T05:11:43.893Z,17432.16
2022-09-20T05:12:52.184Z,21677.53
2022-09-20T05:14:06.488Z,22987.31
2022-09-20T05:15:26.513Z,27563.97
2022-09-20T05:17:07.154Z,31819.13
2022-09-20T05:18:35.722Z,34111.94
2022-09-20T05:20:02.951Z,35089.66
2022-09-20T05:21:28.712Z,32793.16
2022-09-20T05:22:31.328Z,34740.03
2022-09-20T05:23:39.632Z,31809.66
2022-09-20T05:24:52.648Z,33119.22
2022-09-20T05:26:39.832Z,35736.44
2022-09-20T05:27:57.452Z,39318.28
2022-09-20T05:29:14.398Z,36712.44
2022-09-20T05:30:37.997Z,39311.59
2022-09-20T05:32:38.705Z,34092.34
2022-09-20T05:33:54.542Z,28197.38
2022-09-20T05:35:34.032Z,24607.28
2022-09-20T05:36:38.896Z,28514.06
2022-09-20T05:37:56.703Z,23952.00
2022-09-20T05:39:29.796Z,19712.22
2022-09-20T05:40:46.102Z,19710.63
2022-09-20T05:41:56.951Z,18408.25
2022-09-20T05:43:00.342Z,20698.75
2022-09-20T05:44:26.670Z,18413.16
2022-09-20T05:45:53.749Z,16131.47
2022-09-20T05:46:59.210Z,14172.38
2022-09-20T05:48:18.151Z,14826.75
2022-09-20T05:49:39.548Z,15158.84
2022-09-20T05:51:17.040Z,16789.09
2022-09-20T05:52:37.698Z,19063.38
2022-09-20T05:53:42.681Z,17430.19
2022-09-20T05:55:12.706Z,14503.25
2022-09-20T05:56:30.167Z,14505.06
2022-09-20T05:57:41.211Z,15488.09
2022-09-20T05:59:24.224Z,19082.84
2022-09-20T06:00:32.582Z,22671.84
2022-09-20T06:01:42.007Z,17781.44
2022-09-20T06:03:09.454Z,22040.91
2022-09-20T06:04:29.817Z,22700.66
2022-09-20T06:05:58.876Z,27290.88
2022-09-20T06:07:19.298Z,31236.66
2022-09-20T06:08:43.234Z,35824.41
2022-09-20T06:10:25.691Z,36476.31
2022-09-20T06:11:58.496Z,30575.63
2022-09-20T06:13:11.696Z,35807.91
2022-09-20T06:14:19.670Z,34834.97
2022-09-20T06:15:54.776Z,37474.66
2022-09-20T06:17:21.815Z,36840.06
2022-09-20T06:18:31.780Z,43054.94
2022-09-20T06:19:46.471Z,39790.81
2022-09-20T06:21:00.533Z,46400.03
2022-09-20T06:22:27.765Z,50026.69
2022-09-20T06:23:31.467Z,51345.75
2022-09-20T06:25:14.951Z,53355.13
2022-09-20T06:26:25.805Z,57999.31
2022-09-20T06:27:35.420Z,72951.16
2022-09-20T06:28:43.121Z,77307.94
2022-09-20T06:29:53.037Z,89334.75
2022-09-20T06:30:57.185Z,106158.00
2022-09-20T06:31:59.472Z,140201.91
2022-09-20T06:33:15.880Z,142693.56
2022-09-20T06:34:18.020Z,149484.19
2022-09-20T06:35:22.522Z,149630.25
2022-09-20T06:36:42.976Z,149664.31
2022-09-20T06:38:17.739Z,149624.13
2022-09-20T06:39:59.799Z,149330.88
2022-09-20T06:41:22.424Z,149437.97
2022-09-20T06:42:27.257Z,149185.03
2022-09-20T06:43:31.535Z,146208.44
2022-09-20T06:44:33.642Z,134161.78
2022-09-20T06:45:36.041Z,102622.44
2022-09-20T06:46:38.501Z,103667.00
2022-09-20T06:47:41.008Z,119479.28
2022-09-20T06:48:43.145Z,109291.00
2022-09-20T06:49:46.816Z,91840.94
2022-09-20T06:50:49.866Z,60566.06
2022-09-20T06:51:52.435Z,58570.81
2022-09-20T06:52:55.566Z,53985.34
2022-09-20T06:53:57.765Z,57633.78
2022-09-20T06:55:00.045Z,53312.44
2022-09-20T06:56:02.296Z,55971.38
2022-09-20T06:57:06.554Z,51002.75
2022-09-20T06:58:09.761Z,54969.34
2022-09-20T06:59:12.773Z,60277.16
2022-09-20T07:00:15.986Z,56937.72
2022-09-20T07:01:29.347Z,52978.41
2022-09-20T07:02:32.491Z,55631.19
2022-09-20T07:03:34.657Z,48350.03
2022-09-20T07:04:37.291Z,46363.84
2022-09-20T07:05:39.746Z,41763.75
2022-09-20T07:06:41.925Z,47703.91
2022-09-20T07:07:44.232Z,48031.50
2022-09-20T07:08:46.927Z,39772.38
2022-09-20T07:09:49.085Z,38804.50
2022-09-20T07:10:51.178Z,45401.13
2022-09-20T07:11:53.287Z,49681.44
2022-09-20T07:12:57.225Z,42767.59
2022-09-20T07:13:59.425Z,50025.91
2022-09-20T07:15:01.554Z,53350.13
2022-09-20T07:16:05.923Z,59668.91
2022-09-20T07:17:08.098Z,64617.63
2022-09-20T07:18:10.230Z,68275.38
2022-09-20T07:19:12.368Z,65281.78
2022-09-20T07:20:16.547Z,68943.56
2022-09-20T07:21:22.909Z,63915.66
2022-09-20T07:22:25.527Z,62268.00
2022-09-20T07:23:29.869Z,61952.03
2022-09-20T07:24:32.297Z,61935.38
2022-09-20T07:25:35.048Z,56331.69
2022-09-20T07:26:38.879Z,59611.97
2022-09-20T07:27:41.273Z,52997.16
2022-09-20T07:28:43.469Z,50347.75
2022-09-20T07:29:46.187Z,51348.16
2022-09-20T07:30:48.339Z,51689.75
2022-09-20T07:31:50.812Z,55010.84
2022-09-20T07:32:53.599Z,60632.09
2022-09-20T07:33:56.292Z,64583.34
2022-09-20T07:34:58.451Z,59647.72
2022-09-20T07:36:00.780Z,62948.84
2022-09-20T07:37:03.253Z,59601.59
2022-09-20T07:38:05.417Z,58297.25
2022-09-20T07:39:07.599Z,58659.09
2022-09-20T07:40:11.466Z,62333.53
2022-09-20T07:41:13.952Z,62970.75
2022-09-20T07:42:16.349Z,66927.38
2022-09-20T07:43:18.405Z,62634.84
2022-09-20T07:44:27.832Z,71959.25
2022-09-20T07:45:31.132Z,73282.41
2022-09-20T07:46:36.053Z,84296.94
2022-09-20T07:47:41.201Z,92871.63
2022-09-20T07:48:43.367Z,71624.06
2022-09-20T07:49:45.482Z,92944.75
2022-09-20T07:50:52.987Z,86916.72
2022-09-20T07:51:55.165Z,80570.13
2022-09-20T07:52:57.989Z,81611.94
2022-09-20T07:54:00.132Z,84600.66
2022-09-20T07:55:02.260Z,84565.44
2022-09-20T07:56:12.345Z,77617.31
2022-09-20T07:57:14.462Z,83635.44
2022-09-20T07:58:16.570Z,97369.56
2022-09-20T07:59:18.755Z,109734.25
2022-09-20T08:00:20.991Z,102405.47
2022-09-20T08:01:23.531Z,116831.41
2022-09-20T08:02:25.681Z,125309.72
2022-09-20T08:03:31.356Z,130438.13
2022-09-20T08:04:33.499Z,149080.78
2022-09-20T08:05:35.739Z,149289.56
2022-09-20T08:06:40.021Z,149358.91
2022-09-20T08:07:42.143Z,142289.41
2022-09-20T08:08:44.729Z,149372.31
2022-09-20T08:09:46.844Z,149467.19
2022-09-20T08:10:49.029Z,149473.25
2022-09-20T08:11:51.261Z,149469.63
2022-09-20T08:14:17.887Z,149538.94
2022-09-20T08:15:20.204Z,149498.81
2022-09-20T08:16:23.133Z,149489.03
2022-09-20T08:17:25.385Z,149451.34
2022-09-20T08:18:27.978Z,149480.53
2022-09-20T08:19:30.400Z,149455.00
2022-09-20T08:20:37.016Z,149566.97
2022-09-20T08:21:39.774Z,149472.03
2022-09-20T08:22:43.264Z,149525.53
2022-09-20T08:23:48.287Z,149584.00
2022-09-20T08:24:51.948Z,149649.69
2022-09-20T08:25:56.935Z,149605.91
2022-09-20T08:26:59.345Z,149691.06
2022-09-20T08:28:01.745Z,149772.63
2022-09-20T08:29:05.968Z,149844.50
2022-09-20T08:30:09.105Z,150082.00
2022-09-20T08:31:19.268Z,150345.28
2022-09-20T08:32:21.548Z,150207.56
2022-09-20T08:33:23.785Z,150361.13
2022-09-20T08:34:25.873Z,150212.44
2022-09-20T08:35:29.843Z,150339.19
2022-09-20T08:36:36.443Z,150566.06
2022-09-20T08:37:39.781Z,150524.56
2022-09-20T08:40:11.124Z,150675.81
2022-09-20T08:41:27.270Z,150655.13
2022-09-20T08:42:42.069Z,150753.97
2022-09-20T08:43:52.072Z,150918.78
2022-09-20T08:45:00.903Z,151071.34
2022-09-20T08:46:06.143Z,151046.94
2022-09-20T08:47:20.119Z,151109.28
2022-09-20T08:48:29.406Z,150988.34
2022-09-20T08:49:32.357Z,150825.97
2022-09-20T08:50:37.674Z,150868.66
2022-09-20T08:51:48.669Z,150653.91
2022-09-20T08:53:00.069Z,150653.91
2022-09-20T08:54:04.489Z,150378.19
2022-09-20T08:55:37.850Z,150620.97
2022-09-20T08:56:40.910Z,150558.72
2022-09-20T08:57:44.638Z,150733.19
2022-09-20T08:58:47.302Z,150771.03
2022-09-20T08:59:50.354Z,150541.63
2022-09-20T09:00:53.187Z,150646.59
2022-09-20T09:01:55.406Z,150490.41
2022-09-20T09:03:01.012Z,150456.28
2022-09-20T09:04:15.833Z,150309.91
2022-09-20T09:05:33.791Z,150217.28
2022-09-20T09:06:36.059Z,150166.09
2022-09-20T09:07:38.334Z,150004.06
2022-09-20T09:08:44.295Z,150164.88
2022-09-20T09:09:48.566Z,150224.63
2022-09-20T09:11:01.959Z,150405.06
2022-09-20T09:12:04.772Z,150378.19
2022-09-20T09:13:08.131Z,150301.41
2022-09-20T09:14:51.373Z,150388.00
2022-09-20T09:15:58.946Z,150268.50
2022-09-20T09:17:01.363Z,150122.25
2022-09-20T09:18:05.769Z,150261.19
2022-09-20T09:19:45.087Z,150325.78
2022-09-20T09:20:47.556Z,150202.69
2022-09-20T09:21:49.691Z,150136.84
2022-09-20T09:23:04.872Z,150200.25
2022-09-20T09:24:19.394Z,150247.75
2022-09-20T09:25:25.696Z,150231.94
2022-09-20T09:26:35.105Z,150188.09
2022-09-20T09:27:57.640Z,150038.16
2022-09-20T09:29:22.910Z,150067.41
2022-09-20T09:30:35.691Z,150149.00
2022-09-20T09:31:39.682Z,150082.00
2022-09-20T09:32:41.969Z,150090.56
2022-09-20T09:33:45.438Z,150325.78
2022-09-20T09:34:47.949Z,150336.75
2022-09-20T09:35:59.068Z,150331.88
2022-09-20T09:37:01.205Z,150285.59
2022-09-20T09:38:03.675Z,150222.22
2022-09-20T09:39:36.983Z,150210.00
2022-09-20T09:40:50.224Z,150346.50
2022-09-20T09:41:52.626Z,150227.06
2022-09-20T09:42:57.469Z,150346.50
2022-09-20T09:44:09.921Z,150553.84
2022-09-20T09:45:28.743Z,150873.53
2022-09-20T09:46:34.275Z,151127.56
2022-09-20T09:47:37.394Z,151050.59
2022-09-20T09:48:40.433Z,151266.81
2022-09-20T09:50:00.321Z,151275.41
2022-09-20T09:51:12.282Z,151153.22
2022-09-20T09:52:24.594Z,151048.16
2022-09-20T09:53:26.738Z,150607.50
2022-09-20T09:54:38.033Z,150895.53
2022-09-20T09:55:51.968Z,150827.19
2022-09-20T09:57:22.186Z,150590.47
2022-09-20T09:58:59.879Z,150727.09
2022-09-20T10:00:21.222Z,150677.03
2022-09-20T10:01:52.109Z,150446.50
2022-09-20T10:03:12.939Z,150651.47
2022-09-20T10:04:32.975Z,150741.69
2022-09-20T10:05:39.718Z,150653.91
2022-09-20T10:06:58.188Z,150755.19
2022-09-20T10:08:21.237Z,150735.59
2022-09-20T10:09:45.189Z,150876.03
2022-09-20T10:11:15.094Z,151100.69
2022-09-20T10:12:39.042Z,151133.66
2022-09-20T10:14:20.062Z,150711.25
2022-09-20T10:15:41.951Z,150812.56
2022-09-20T10:17:17.736Z,150699.00
2022-09-20T10:18:19.907Z,150902.84
2022-09-20T10:19:43.221Z,151161.75
2022-09-20T10:21:00.635Z,151225.25
2022-09-20T10:22:35.112Z,151263.16
2022-09-20T10:24:04.354Z,151123.91
2022-09-20T10:25:33.887Z,151202.03
2022-09-20T10:27:06.400Z,151386.56
2022-09-20T10:28:27.960Z,151290.06
2022-09-20T10:30:07.360Z,151401.22
2022-09-20T10:31:25.999Z,151158.09
2022-09-20T10:32:53.975Z,151183.75
2022-09-20T10:34:25.009Z,151381.69
2022-09-20T10:35:43.727Z,151316.94
2022-09-20T10:36:57.402Z,151541.81
2022-09-20T10:38:08.229Z,151609.09
2022-09-20T10:39:16.269Z,151511.25
2022-09-20T10:40:59.380Z,151770.53
2022-09-20T10:42:45.178Z,151837.78
2022-09-20T10:43:53.183Z,151911.22
2022-09-20T10:44:55.269Z,151885.50
2022-09-20T10:46:32.802Z,151856.09
2022-09-20T10:48:01.434Z,152058.03
2022-09-20T10:49:28.194Z,152144.94
2022-09-20T10:50:43.590Z,152267.38
2022-09-20T10:52:00.761Z,152500.09
2022-09-20T10:53:25.883Z,152206.19
2022-09-20T10:54:33.786Z,152039.72
2022-09-20T10:55:40.311Z,151946.69
2022-09-20T10:56:49.256Z,151848.78
2022-09-20T10:58:13.736Z,152169.47
2022-09-20T10:59:27.833Z,152666.72
2022-09-20T11:00:47.431Z,152732.91
2022-09-20T11:02:14.880Z,152978.06
2022-09-20T11:03:16.972Z,153066.34
2022-09-20T11:04:25.057Z,153414.72
2022-09-20T11:05:30.970Z,153479.78
2022-09-20T11:07:07.382Z,153076.13
2022-09-20T11:08:22.673Z,153034.47
2022-09-20T11:09:30.159Z,152838.31
2022-09-20T11:10:45.076Z,152839.53
2022-09-20T11:11:52.702Z,152784.34
2022-09-20T11:13:01.231Z,152670.38
2022-09-20T11:14:11.035Z,152578.50
2022-09-20T11:15:23.747Z,152601.78
2022-09-20T11:16:41.799Z,152032.38
2022-09-20T11:18:00.397Z,151695.88
2022-09-20T11:19:23.515Z,151516.16
2022-09-20T11:20:32.191Z,151396.31
2022-09-20T11:21:38.360Z,151034.72
2022-09-20T11:22:55.735Z,150935.84
2022-09-20T11:24:12.160Z,150542.84
2022-09-20T11:25:29.449Z,150502.59
2022-09-20T11:26:38.542Z,150334.31
2022-09-20T11:28:06.131Z,150346.50
2022-09-20T11:29:32.339Z,150267.28
2022-09-20T11:30:43.362Z,150170.97
2022-09-20T11:31:49.107Z,150005.28
2022-09-20T11:33:04.661Z,149900.53
2022-09-20T11:34:13.562Z,149904.16
2022-09-20T11:35:33.607Z,149934.63
2022-09-20T11:36:44.010Z,149879.81
2022-09-20T11:38:09.525Z,149895.66
2022-09-20T11:39:20.034Z,149854.22
2022-09-20T11:40:31.466Z,149832.34
2022-09-20T11:41:34.047Z,149702.03
2022-09-20T11:42:41.234Z,149761.69
2022-09-20T11:43:45.987Z,149682.56
2022-09-20T11:44:48.500Z,149669.19
2022-09-20T11:45:55.434Z,149637.53
2022-09-20T11:47:07.146Z,149674.03
2022-09-20T11:48:18.260Z,149654.56
2022-09-20T11:49:30.253Z,149605.91
2022-09-20T11:50:35.810Z,149475.69
2022-09-20T11:52:00.558Z,149538.94
2022-09-20T11:53:15.132Z,144828.50
2022-09-20T11:54:30.355Z,143795.41
2022-09-20T11:55:59.041Z,140771.16
2022-09-20T11:57:01.262Z,149149.16
2022-09-20T11:58:12.950Z,149615.63
2022-09-20T11:59:40.397Z,149530.44
2022-09-20T12:00:47.854Z,149557.16
2022-09-20T12:01:56.827Z,149635.13
2022-09-20T12:03:00.211Z,149591.28
2022-09-20T12:04:39.042Z,149607.13
2022-09-20T12:05:42.181Z,149601.03
2022-09-20T12:06:45.633Z,149657.00
2022-09-20T12:07:54.390Z,149744.63
2022-09-20T12:08:59.945Z,149703.25
2022-09-20T12:10:23.343Z,149822.56
2022-09-20T12:11:32.227Z,149816.50
2022-09-20T12:12:45.256Z,149882.25
2022-09-20T12:13:59.210Z,149917.53
2022-09-20T12:15:04.271Z,149907.81
2022-09-20T12:16:08.434Z,149910.25
2022-09-20T12:17:47.809Z,150061.34
2022-09-20T12:18:53.918Z,149941.91
2022-09-20T12:19:56.064Z,149971.13
2022-09-20T12:21:00.898Z,150012.59
2022-09-20T12:22:05.779Z,149949.22
2022-09-20T12:23:42.568Z,150149.00
2022-09-20T12:24:45.683Z,150124.69
2022-09-20T12:26:04.513Z,150157.56
2022-09-20T12:27:41.320Z,150253.91
2022-09-20T12:28:49.341Z,150230.72
2022-09-20T12:29:54.215Z,150168.53
2022-09-20T12:31:18.117Z,150358.72
2022-09-20T12:32:33.875Z,150439.19
2022-09-20T12:34:11.767Z,150402.63
2022-09-20T12:35:36.011Z,150573.38
2022-09-20T12:36:43.481Z,150497.72
2022-09-20T12:37:45.648Z,150644.09
2022-09-20T12:38:53.086Z,150866.22
2022-09-20T12:39:55.905Z,150878.44
2022-09-20T12:41:05.012Z,150940.72
2022-09-20T12:42:10.166Z,150978.59
2022-09-20T12:43:21.760Z,150871.09
2022-09-20T12:44:37.437Z,150913.84
2022-09-20T12:45:39.700Z,150840.59
2022-09-20T12:46:50.983Z,150822.31
2022-09-20T12:47:55.986Z,150578.25
2022-09-20T12:49:57.314Z,150683.19
2022-09-20T12:51:46.595Z,150772.25
2022-09-20T12:52:58.639Z,151056.69
2022-09-20T12:54:10.735Z,151241.16
2022-09-20T12:55:34.941Z,151126.34
2022-09-20T12:56:39.896Z,151315.72
2022-09-20T12:57:42.785Z,151428.16
2022-09-20T12:58:45.100Z,151538.16
2022-09-20T12:59:57.681Z,151797.41
2022-09-20T13:01:08.411Z,151425.72
2022-09-20T13:02:57.180Z,151464.81
2022-09-20T13:04:37.002Z,151823.09
2022-09-20T13:05:47.220Z,151758.28
2022-09-20T13:06:49.675Z,151900.22
2022-09-20T13:08:01.963Z,151514.94
2022-09-20T13:09:13.157Z,151529.56
2022-09-20T13:10:27.028Z,151815.75
2022-09-20T13:11:52.515Z,151748.50
2022-09-20T13:13:01.238Z,151634.78
2022-09-20T13:14:12.121Z,151827.97
2022-09-20T13:15:19.854Z,152018.88
2022-09-20T13:16:47.245Z,152012.75
2022-09-20T13:17:55.142Z,152043.38
2022-09-20T13:19:18.020Z,152066.63
2022-09-20T13:20:29.925Z,152004.19
2022-09-20T13:21:37.922Z,151721.59
2022-09-20T13:22:45.404Z,151660.41
2022-09-20T13:23:54.949Z,151797.41
2022-09-20T13:24:59.995Z,151993.16
2022-09-20T13:26:04.378Z,151883.06
2022-09-20T13:27:13.220Z,152000.53
2022-09-20T13:28:31.358Z,152165.81
2022-09-20T13:29:42.370Z,152049.47
2022-09-20T13:30:44.457Z,151809.66
2022-09-20T13:31:46.638Z,151752.16
2022-09-20T13:32:51.375Z,151587.06
2022-09-20T13:33:53.969Z,151181.31
2022-09-20T13:35:10.868Z,151254.63
2022-09-20T13:36:13.780Z,150959.03
2022-09-20T13:37:23.408Z,150895.53
2022-09-20T13:38:30.106Z,150824.75
2022-09-20T13:39:37.228Z,150705.09
2022-09-20T13:40:44.641Z,150614.88
2022-09-20T13:41:47.083Z,150463.59
2022-09-20T13:42:52.437Z,150419.72
2022-09-20T13:43:55.001Z,150301.41
2022-09-20T13:44:58.733Z,150262.41
2022-09-20T13:46:08.969Z,150210.00
2022-09-20T13:47:27.516Z,150157.56
2022-09-20T13:48:30.564Z,150197.81
2022-09-20T13:49:32.849Z,150200.25
2022-09-20T13:50:39.240Z,150298.97
2022-09-20T13:51:43.438Z,150317.28
2022-09-20T13:52:48.341Z,150390.44
2022-09-20T13:53:50.642Z,150317.28
2022-09-20T13:54:52.896Z,150312.34
2022-09-20T13:55:55.607Z,150351.41
2022-09-20T13:57:11.931Z,150400.19
2022-09-20T13:58:25.380Z,150331.88
2022-09-20T13:59:42.466Z,150311.13
2022-09-20T14:00:51.825Z,150286.81
2022-09-20T14:01:55.534Z,150203.91
2022-09-20T14:02:59.188Z,150231.94
2022-09-20T14:04:14.607Z,150302.63
2022-09-20T14:05:19.308Z,150286.81
2022-09-20T14:06:29.611Z,150285.59
2022-09-20T14:07:32.729Z,150218.56
2022-09-20T14:08:45.327Z,150257.53
2022-09-20T14:09:47.430Z,150146.59
2022-09-20T14:11:02.890Z,150190.53
2022-09-20T14:12:06.356Z,150071.06
2022-09-20T14:13:15.382Z,150038.16
2022-09-20T14:14:22.355Z,150019.88
2022-09-20T14:15:26.954Z,149939.47
2022-09-20T14:16:37.882Z,149950.44